Time;durP1;ratioP1;P1;durP2;ratioP2;P2;SDS_P1;SDS_P2;PMS_P1;PMS_P2;Temp;Humidity;BMP_temperature;BMP_pressure;BME280_temperature;BME280_humidity;BME280_pressure;Samples;Min_cycle;Max_cycle;Signal;HPM_P1;HPM_P2
2022/10/27 00:00:16;;;;;;;15.68;9.07;;;;;;;;;;2065825;28;20105;-47
2022/10/27 00:01:17;;;;;;;14.67;8.47;;;;;;;;;;2065442;28;21347;-45
2022/10/27 00:02:18;;;;;;;14.20;8.40;;;;;;;;;;2065446;28;20050;-47
2022/10/27 00:03:19;;;;;;;14.80;8.27;;;;;;;;;;2065891;28;20047;-44
2022/10/27 00:04:21;;;;;;;14.70;8.23;;;;;;;;;;2065521;28;20579;-44
2022/10/27 00:05:22;;;;;;;14.27;7.27;;;;;;;;;;2065424;28;20042;-45
2022/10/27 00:06:23;;;;;;;16.23;8.15;;;;;;;;;;2065725;28;20054;-45
2022/10/27 00:07:25;;;;;;;14.10;8.35;;;;;;;;;;2065453;28;20054;-46
2022/10/27 00:08:25;;;;;;;13.43;7.40;;;;;;;;;;2065565;28;20415;-46
2022/10/27 00:09:26;;;;;;;12.40;7.17;;;;;;;;;;2065442;28;20050;-47
2022/10/27 00:10:27;;;;;;;16.95;8.52;;;;;;;;;;2065680;28;20499;-46
2022/10/27 00:11:28;;;;;;;15.33;8.30;;;;;;;;;;2065325;28;20054;-45
2022/10/27 00:12:30;;;;;;;13.10;8.07;;;;;;;;;;2065515;28;20043;-45
2022/10/27 00:13:31;;;;;;;17.10;7.90;;;;;;;;;;2065383;28;20137;-45
2022/10/27 00:14:32;;;;;;;12.45;8.38;;;;;;;;;;2065028;28;20334;-45
2022/10/27 00:15:33;;;;;;;16.10;8.40;;;;;;;;;;2065724;28;20120;-45
2022/10/27 00:16:34;;;;;;;13.30;8.23;;;;;;;;;;2065365;28;20073;-45
2022/10/27 00:17:35;;;;;;;21.13;8.53;;;;;;;;;;2065323;28;20073;-45
2022/10/27 00:18:36;;;;;;;13.75;8.07;;;;;;;;;;2065311;28;20506;-45
2022/10/27 00:19:37;;;;;;;16.57;8.83;;;;;;;;;;2065448;28;20054;-45
2022/10/27 00:20:38;;;;;;;17.65;8.13;;;;;;;;;;2065634;28;20112;-45
2022/10/27 00:21:39;;;;;;;17.27;8.23;;;;;;;;;;2065263;28;20097;-45
2022/10/27 00:22:41;;;;;;;13.20;8.38;;;;;;;;;;2065370;28;20133;-44
2022/10/27 00:23:42;;;;;;;18.85;8.52;;;;;;;;;;2065495;28;20042;-45
2022/10/27 00:24:43;;;;;;;15.73;7.85;;;;;;;;;;2065650;28;20050;-47
2022/10/27 00:25:51;;;;;;;13.80;8.03;;;;;;;;;;2065357;28;20119;-46
2022/10/27 00:26:52;;;;;;;15.68;8.32;;;;;;;;;;2065382;28;20050;-46
2022/10/27 00:27:53;;;;;;;14.10;8.77;;;;;;;;;;2065295;28;20056;-46
2022/10/27 00:28:54;;;;;;;14.07;8.00;;;;;;;;;;2065337;28;20042;-47
2022/10/27 00:29:55;;;;;;;14.07;8.27;;;;;;;;;;2065525;28;20498;-47
2022/10/27 00:30:57;;;;;;;16.73;8.73;;;;;;;;;;2065410;28;20065;-48
2022/10/27 00:31:58;;;;;;;17.33;9.27;;;;;;;;;;2065342;28;20129;-46
2022/10/27 00:32:59;;;;;;;16.20;9.68;;;;;;;;;;2065453;28;20050;-46
2022/10/27 00:34:00;;;;;;;12.97;7.70;;;;;;;;;;2065095;28;20570;-47
2022/10/27 00:35:01;;;;;;;16.23;8.48;;;;;;;;;;2065396;28;20046;-47
2022/10/27 00:36:03;;;;;;;11.60;7.40;;;;;;;;;;2065536;28;20128;-47
2022/10/27 00:37:04;;;;;;;13.40;8.00;;;;;;;;;;2065205;28;20057;-46
2022/10/27 00:38:06;;;;;;;14.77;8.50;;;;;;;;;;2065390;28;20050;-46
2022/10/27 00:39:07;;;;;;;16.52;8.45;;;;;;;;;;2065110;28;20503;-46
2022/10/27 00:40:09;;;;;;;14.75;7.35;;;;;;;;;;2065358;28;20054;-47
2022/10/27 00:41:10;;;;;;;;;;;;;;;;;;2065634;28;20050;-46
2022/10/27 00:42:11;;;;;;;13.88;8.68;;;;;;;;;;2065337;28;20370;-47
2022/10/27 00:43:22;;;;;;;15.32;8.73;;;;;;;;;;2065173;28;20077;-47
2022/10/27 00:44:29;;;;;;;13.77;8.27;;;;;;;;;;2065233;28;20043;-46
2022/10/27 00:45:32;;;;;;;15.20;7.68;;;;;;;;;;2065120;28;20074;-47
2022/10/27 00:46:36;;;;;;;14.27;8.57;;;;;;;;;;2065135;28;20488;-46
2022/10/27 00:47:37;;;;;;;18.65;8.35;;;;;;;;;;2065156;28;20057;-46
2022/10/27 00:48:38;;;;;;;17.90;8.38;;;;;;;;;;2065447;28;20043;-47
2022/10/27 00:49:44;;;;;;;16.98;9.50;;;;;;;;;;2065302;28;20046;-46
2022/10/27 00:50:46;;;;;;;14.73;8.65;;;;;;;;;;2065599;28;20042;-46
2022/10/27 00:51:48;;;;;;;14.25;8.32;;;;;;;;;;2058040;28;20054;-48
2022/10/27 00:52:50;;;;;;;19.40;9.35;;;;;;;;;;2057336;28;20047;-46
2022/10/27 00:53:53;;;;;;;13.32;8.00;;;;;;;;;;2057221;28;20046;-47
2022/10/27 00:54:56;;;;;;;15.88;8.25;;;;;;;;;;2057111;28;20054;-46
2022/10/27 00:55:57;;;;;;;15.32;8.38;;;;;;;;;;2057057;28;20616;-47
2022/10/27 00:56:58;;;;;;;16.45;8.52;;;;;;;;;;2057053;28;20050;-50
2022/10/27 00:58:00;;;;;;;19.05;8.60;;;;;;;;;;2060707;28;20053;-44
2022/10/27 00:59:01;;;;;;;17.20;8.50;;;;;;;;;;2065407;28;20046;-47
2022/10/27 01:00:03;;;;;;;14.73;7.95;;;;;;;;;;2065187;28;20472;-46
2022/10/27 01:01:04;;;;;;;;;;;;;;;;;;2065416;28;20507;-46
2022/10/27 01:02:06;;;;;;;14.20;8.18;;;;;;;;;;2065169;28;20134;-47
2022/10/27 01:03:09;;;;;;;13.65;8.45;;;;;;;;;;2065411;28;20057;-46
2022/10/27 01:04:10;;;;;;;14.98;8.65;;;;;;;;;;2064985;28;20050;-46
2022/10/27 01:05:16;;;;;;;13.20;7.85;;;;;;;;;;2065243;28;20046;-46
2022/10/27 01:06:17;;;;;;;14.30;9.30;;;;;;;;;;2064530;28;20109;-46
2022/10/27 01:07:18;;;;;;;15.17;8.40;;;;;;;;;;2065075;28;20100;-48
2022/10/27 01:08:22;;;;;;;16.10;8.93;;;;;;;;;;2065105;28;20046;-46
2022/10/27 01:09:24;;;;;;;16.67;9.18;;;;;;;;;;2065431;28;20451;-46
2022/10/27 01:10:24;;;;;;;;;;;;;;;;;;2065529;28;20104;-47
2022/10/27 01:11:25;;;;;;;16.52;8.80;;;;;;;;;;2064975;28;20071;-47
2022/10/27 01:12:26;;;;;;;16.85;9.00;;;;;;;;;;2064972;28;20500;-46
2022/10/27 01:13:27;;;;;;;12.20;8.32;;;;;;;;;;2065348;28;20046;-44
2022/10/27 01:14:29;;;;;;;13.52;8.43;;;;;;;;;;2057340;28;20054;-45
2022/10/27 01:15:35;;;;;;;14.90;8.68;;;;;;;;;;2056947;28;20382;-45
2022/10/27 01:16:40;;;;;;;18.20;8.90;;;;;;;;;;2057170;28;20070;-45
2022/10/27 01:17:47;;;;;;;15.98;8.85;;;;;;;;;;2056969;28;20051;-46
2022/10/27 01:18:54;;;;;;;14.55;7.85;;;;;;;;;;2057074;28;20047;-45
2022/10/27 01:20:10;;;;;;;15.43;8.93;;;;;;;;;;2056923;28;20129;-45
2022/10/27 01:21:33;;;;;;;13.25;7.72;;;;;;;;;;2054422;28;20061;-45
2022/10/27 01:22:37;;;;;;;18.20;8.98;;;;;;;;;;2057092;28;20055;-46
2022/10/27 01:23:45;;;;;;;17.58;8.60;;;;;;;;;;2056835;28;20057;-46
2022/10/27 01:24:59;;;;;;;19.67;8.90;;;;;;;;;;2056984;28;20058;-47
2022/10/27 01:26:08;;;;;;;17.95;9.05;;;;;;;;;;2056837;28;20555;-47
2022/10/27 01:27:19;;;;;;;16.60;8.70;;;;;;;;;;2057057;28;20046;-46
2022/10/27 01:28:38;;;;;;;14.70;8.77;;;;;;;;;;2056949;28;20125;-47
2022/10/27 01:29:49;;;;;;;15.35;8.07;;;;;;;;;;2047029;28;20070;-45
2022/10/27 01:30:55;;;;;;;16.13;8.85;;;;;;;;;;2057108;28;20484;-46
2022/10/27 01:32:01;;;;;;;17.10;8.00;;;;;;;;;;2056932;28;20453;-46
2022/10/27 01:33:05;;;;;;;21.90;9.00;;;;;;;;;;2061586;28;20050;-47
2022/10/27 01:34:09;;;;;;;14.75;8.50;;;;;;;;;;2064978;28;20051;-46
2022/10/27 01:35:17;;;;;;;15.68;10.07;;;;;;;;;;2064925;28;20057;-47
2022/10/27 01:36:21;;;;;;;14.30;9.38;;;;;;;;;;2064406;28;20054;-47
2022/10/27 01:37:26;;;;;;;16.08;9.05;;;;;;;;;;2064795;28;20392;-49
2022/10/27 01:38:28;;;;;;;13.13;8.85;;;;;;;;;;2064948;28;20050;-47
2022/10/27 01:39:30;;;;;;;18.25;8.70;;;;;;;;;;2065125;28;20053;-47
2022/10/27 01:40:34;;;;;;;15.20;9.10;;;;;;;;;;2064684;28;20198;-45
2022/10/27 01:41:37;;;;;;;12.82;8.23;;;;;;;;;;2064800;28;20433;-45
2022/10/27 01:42:41;;;;;;;12.20;8.10;;;;;;;;;;2064609;28;20158;-47
2022/10/27 01:43:43;;;;;;;16.17;8.85;;;;;;;;;;2064950;28;20050;-48
2022/10/27 01:44:45;;;;;;;16.23;8.95;;;;;;;;;;2064991;28;20042;-47
2022/10/27 01:45:47;;;;;;;15.52;8.27;;;;;;;;;;2064236;28;20117;-47
2022/10/27 01:46:49;;;;;;;13.35;8.20;;;;;;;;;;2064732;28;20069;-47
2022/10/27 01:47:50;;;;;;;;;;;;;;;;;;2064937;28;20061;-48
2022/10/27 01:48:51;;;;;;;17.63;8.27;;;;;;;;;;2064740;28;20044;-47
2022/10/27 01:49:53;;;;;;;14.90;7.60;;;;;;;;;;2065625;28;20108;-47
2022/10/27 01:50:54;;;;;;;15.25;9.00;;;;;;;;;;2064344;28;20483;-47
2022/10/27 01:52:03;;;;;;;13.27;8.50;;;;;;;;;;2056894;28;20050;-46
2022/10/27 01:53:04;;;;;;;15.10;9.02;;;;;;;;;;2056833;28;20105;-46
2022/10/27 01:54:06;;;;;;;12.88;8.30;;;;;;;;;;2056992;28;20054;-47
2022/10/27 01:55:09;;;;;;;15.18;8.30;;;;;;;;;;2056966;28;20061;-46
2022/10/27 01:56:17;;;;;;;15.23;8.35;;;;;;;;;;2057046;28;20054;-46
2022/10/27 01:57:23;;;;;;;14.40;8.73;;;;;;;;;;2056872;28;20046;-47
2022/10/27 01:58:32;;;;;;;16.70;8.57;;;;;;;;;;2056877;28;20051;-47
2022/10/27 01:59:42;;;;;;;13.95;7.72;;;;;;;;;;2056750;28;20105;-47
2022/10/27 02:00:51;;;;;;;18.02;8.90;;;;;;;;;;2057658;28;20445;-45
2022/10/27 02:01:58;;;;;;;17.27;8.52;;;;;;;;;;2064682;28;20054;-45
2022/10/27 02:03:03;;;;;;;16.65;9.13;;;;;;;;;;2065144;28;20042;-46
2022/10/27 02:04:07;;;;;;;11.57;8.00;;;;;;;;;;2064686;28;20488;-47
2022/10/27 02:05:09;;;;;;;14.10;8.38;;;;;;;;;;2064736;28;20417;-46
2022/10/27 02:06:17;;;;;;;18.25;8.43;;;;;;;;;;2064746;28;20057;-47
2022/10/27 02:07:22;;;;;;;13.98;8.85;;;;;;;;;;2065189;28;20058;-45
2022/10/27 02:08:27;;;;;;;18.95;9.15;;;;;;;;;;2064614;28;20494;-45
2022/10/27 02:09:38;;;;;;;17.25;8.63;;;;;;;;;;2064662;28;20066;-44
2022/10/27 02:10:42;;;;;;;14.60;8.88;;;;;;;;;;2065503;28;20056;-46
2022/10/27 02:11:46;;;;;;;13.63;8.10;;;;;;;;;;2064125;28;20459;-45
2022/10/27 02:12:48;;;;;;;13.60;8.13;;;;;;;;;;2064923;28;20051;-46
2022/10/27 02:13:51;;;;;;;15.77;7.88;;;;;;;;;;2064658;28;20050;-44
2022/10/27 02:14:51;;;;;;;;;;;;;;;;;;2065339;28;20488;-47
2022/10/27 02:15:54;;;;;;;13.80;8.27;;;;;;;;;;2064667;28;19925;-46
2022/10/27 02:16:57;;;;;;;20.95;8.32;;;;;;;;;;2064806;28;20526;-46
2022/10/27 02:18:01;;;;;;;14.45;8.60;;;;;;;;;;2064307;28;20141;-46
2022/10/27 02:19:05;;;;;;;15.88;8.35;;;;;;;;;;2065357;28;20072;-44
2022/10/27 02:20:09;;;;;;;16.17;8.50;;;;;;;;;;2064515;28;20149;-45
2022/10/27 02:21:11;;;;;;;15.38;7.38;;;;;;;;;;2064755;28;20054;-46
2022/10/27 02:22:12;;;;;;;14.98;7.97;;;;;;;;;;2065141;28;20096;-45
2022/10/27 02:23:15;;;;;;;14.70;8.75;;;;;;;;;;2065247;28;20096;-45
2022/10/27 02:24:16;;;;;;;13.80;8.85;;;;;;;;;;2064829;28;20077;-44
2022/10/27 02:25:18;;;;;;;12.00;7.55;;;;;;;;;;2064629;28;20105;-46
2022/10/27 02:26:19;;;;;;;;;;;;;;;;;;2065117;28;20053;-45
2022/10/27 02:27:24;;;;;;;17.83;9.48;;;;;;;;;;2064839;28;20379;-45
2022/10/27 02:28:27;;;;;;;14.43;9.13;;;;;;;;;;2064665;28;20046;-45
2022/10/27 02:29:31;;;;;;;14.50;8.18;;;;;;;;;;2056780;28;20055;-45
2022/10/27 02:30:33;;;;;;;13.93;7.75;;;;;;;;;;2056665;28;20062;-46
2022/10/27 02:31:36;;;;;;;12.43;7.43;;;;;;;;;;2060977;28;20050;-47
2022/10/27 02:32:38;;;;;;;13.27;8.20;;;;;;;;;;2064486;28;20047;-46
2022/10/27 02:33:40;;;;;;;14.40;7.60;;;;;;;;;;2064557;28;20058;-47
2022/10/27 02:34:42;;;;;;;17.45;7.90;;;;;;;;;;2064405;28;20326;-45
2022/10/27 02:35:43;;;;;;;15.82;8.00;;;;;;;;;;2064559;28;20074;-45
2022/10/27 02:36:49;;;;;;;15.50;8.88;;;;;;;;;;2065089;28;20132;-45
2022/10/27 02:37:51;;;;;;;15.67;8.20;;;;;;;;;;2064495;28;20136;-46
2022/10/27 02:38:51;;;;;;;;;;;;;;;;;;2065087;28;20054;-45
2022/10/27 02:39:52;;;;;;;15.10;8.40;;;;;;;;;;2064823;28;20044;-46
2022/10/27 02:40:53;;;;;;;14.93;8.43;;;;;;;;;;2064558;28;20074;-46
2022/10/27 02:41:55;;;;;;;15.57;8.73;;;;;;;;;;2064486;28;20512;-48
2022/10/27 02:42:55;;;;;;;13.07;7.93;;;;;;;;;;2064251;28;20069;-49
2022/10/27 02:43:57;;;;;;;13.97;7.57;;;;;;;;;;2056634;28;20062;-46
2022/10/27 02:44:57;;;;;;;12.00;7.38;;;;;;;;;;2056803;28;20046;-47
2022/10/27 02:45:59;;;;;;;14.23;8.07;;;;;;;;;;2056432;28;20412;-47
2022/10/27 02:46:59;;;;;;;11.30;7.40;;;;;;;;;;2056440;28;20074;-47
2022/10/27 02:48:03;;;;;;;14.95;8.32;;;;;;;;;;2056382;28;20114;-46
2022/10/27 02:49:04;;;;;;;;;;;;;;;;;;2057355;28;20053;-45
2022/10/27 02:50:06;;;;;;;13.77;8.35;;;;;;;;;;2056472;28;19933;-45
2022/10/27 02:51:07;;;;;;;10.32;7.10;;;;;;;;;;2056556;28;20054;-46
2022/10/27 02:52:08;;;;;;;13.73;7.55;;;;;;;;;;2056462;28;20051;-46
2022/10/27 02:53:09;;;;;;;17.20;7.80;;;;;;;;;;2056575;28;20047;-48
2022/10/27 02:54:10;;;;;;;14.60;8.23;;;;;;;;;;2056462;28;20085;-47
2022/10/27 02:55:11;;;;;;;15.73;7.50;;;;;;;;;;2056445;28;20411;-46
2022/10/27 02:56:12;;;;;;;13.67;7.97;;;;;;;;;;2058158;28;20082;-45
2022/10/27 02:57:14;;;;;;;16.48;7.50;;;;;;;;;;2065301;28;20284;-45
2022/10/27 02:58:15;;;;;;;15.68;8.00;;;;;;;;;;2066287;28;20507;-46
2022/10/27 02:59:16;;;;;;;13.75;7.43;;;;;;;;;;2066022;28;20061;-45
2022/10/27 03:00:17;;;;;;;15.65;8.13;;;;;;;;;;2065841;28;20085;-46
2022/10/27 03:01:18;;;;;;;14.07;7.75;;;;;;;;;;2066107;28;20034;-44
2022/10/27 03:02:21;;;;;;;15.07;8.02;;;;;;;;;;2066068;28;20057;-44
2022/10/27 03:03:23;;;;;;;15.38;7.50;;;;;;;;;;2065781;28;20352;-45
2022/10/27 03:04:27;;;;;;;13.65;8.25;;;;;;;;;;2065832;28;20186;-45
2022/10/27 03:05:28;;;;;;;16.13;7.72;;;;;;;;;;2065821;28;20056;-44
2022/10/27 03:06:29;;;;;;;14.43;7.70;;;;;;;;;;2066002;28;20069;-43
2022/10/27 03:07:30;;;;;;;18.17;8.00;;;;;;;;;;2065860;28;20055;-43
2022/10/27 03:08:31;;;;;;;11.68;7.40;;;;;;;;;;2066001;28;20480;-43
2022/10/27 03:09:32;;;;;;;16.35;7.75;;;;;;;;;;2065881;28;20046;-43
2022/10/27 03:10:33;;;;;;;14.13;7.40;;;;;;;;;;2065959;28;20436;-44
2022/10/27 03:11:34;;;;;;;13.02;6.95;;;;;;;;;;2065722;28;20057;-43
2022/10/27 03:12:36;;;;;;;11.25;7.25;;;;;;;;;;2066168;28;20057;-43
2022/10/27 03:13:36;;;;;;;11.15;7.07;;;;;;;;;;2065884;28;20058;-43
2022/10/27 03:14:38;;;;;;;14.02;7.43;;;;;;;;;;2065780;28;20484;-44
2022/10/27 03:15:38;;;;;;;13.07;7.50;;;;;;;;;;2065918;28;20062;-46
2022/10/27 03:16:40;;;;;;;12.80;7.57;;;;;;;;;;2065733;28;20042;-45
2022/10/27 03:17:42;;;;;;;13.60;7.80;;;;;;;;;;2065912;28;20113;-44
2022/10/27 03:18:44;;;;;;;12.38;6.75;;;;;;;;;;2065924;28;20046;-44
2022/10/27 03:19:45;;;;;;;11.13;7.10;;;;;;;;;;2065830;28;20050;-43
2022/10/27 03:20:46;;;;;;;12.90;6.80;;;;;;;;;;2065841;28;20054;-44
2022/10/27 03:21:47;;;;;;;12.05;7.63;;;;;;;;;;2065640;28;20059;-44
2022/10/27 03:22:48;;;;;;;19.30;8.30;;;;;;;;;;2065679;28;20058;-44
2022/10/27 03:23:50;;;;;;;13.38;7.97;;;;;;;;;;2065721;28;20132;-45
2022/10/27 03:24:51;;;;;;;10.90;7.33;;;;;;;;;;2066069;28;20101;-43
2022/10/27 03:25:52;;;;;;;14.10;7.97;;;;;;;;;;2066125;28;20400;-44
2022/10/27 03:26:58;;;;;;;14.70;7.38;;;;;;;;;;2065723;28;20061;-43
2022/10/27 03:27:59;;;;;;;16.38;8.38;;;;;;;;;;2065683;28;20043;-44
2022/10/27 03:29:00;;;;;;;16.33;8.07;;;;;;;;;;2065537;28;20050;-43
2022/10/27 03:30:01;;;;;;;14.10;7.00;;;;;;;;;;2065753;28;20053;-44
2022/10/27 03:31:02;;;;;;;15.05;7.03;;;;;;;;;;2065622;28;20085;-43
2022/10/27 03:32:04;;;;;;;13.13;7.43;;;;;;;;;;2065800;28;20050;-43
2022/10/27 03:33:05;;;;;;;13.30;6.97;;;;;;;;;;2066077;28;20054;-45
2022/10/27 03:34:06;;;;;;;13.02;8.10;;;;;;;;;;2065561;28;20299;-45
2022/10/27 03:35:08;;;;;;;13.82;7.47;;;;;;;;;;2065777;28;20055;-45
2022/10/27 03:36:10;;;;;;;11.73;7.60;;;;;;;;;;2065722;28;20050;-47
2022/10/27 03:37:11;;;;;;;15.10;7.65;;;;;;;;;;2065620;28;20050;-45
2022/10/27 03:38:12;;;;;;;15.83;8.23;;;;;;;;;;2065772;28;20061;-45
2022/10/27 03:39:13;;;;;;;13.93;8.43;;;;;;;;;;2065842;28;20081;-44
2022/10/27 03:40:14;;;;;;;17.43;8.27;;;;;;;;;;2065697;28;20530;-44
2022/10/27 03:41:15;;;;;;;13.43;7.63;;;;;;;;;;2065543;28;20492;-44
2022/10/27 03:42:16;;;;;;;13.97;7.60;;;;;;;;;;2065728;28;20085;-44
2022/10/27 03:43:17;;;;;;;14.90;7.35;;;;;;;;;;2066102;28;20054;-44
2022/10/27 03:44:18;;;;;;;13.17;7.70;;;;;;;;;;2065878;28;20050;-44
2022/10/27 03:45:19;;;;;;;13.88;7.85;;;;;;;;;;2065681;28;20316;-44
2022/10/27 03:46:20;;;;;;;15.00;8.20;;;;;;;;;;2066309;28;20053;-45
2022/10/27 03:47:21;;;;;;;12.80;7.72;;;;;;;;;;2065615;28;20113;-47
2022/10/27 03:48:22;;;;;;;15.03;7.90;;;;;;;;;;2065766;28;20050;-44
2022/10/27 03:49:24;;;;;;;12.93;8.05;;;;;;;;;;2065701;28;20057;-45
2022/10/27 03:50:25;;;;;;;14.43;8.18;;;;;;;;;;2065593;28;20084;-46
2022/10/27 03:51:27;;;;;;;13.60;8.48;;;;;;;;;;2061069;28;20050;-45
2022/10/27 03:52:29;;;;;;;18.95;8.35;;;;;;;;;;2057461;28;20061;-46
2022/10/27 03:53:33;;;;;;;12.35;8.13;;;;;;;;;;2057828;28;20059;-47
2022/10/27 03:54:34;;;;;;;16.40;8.40;;;;;;;;;;2057602;28;20074;-46
2022/10/27 03:55:35;;;;;;;14.20;8.43;;;;;;;;;;2058041;28;20058;-44
2022/10/27 03:56:36;;;;;;;15.82;8.52;;;;;;;;;;2057546;28;20583;-44
2022/10/27 03:57:37;;;;;;;15.38;7.85;;;;;;;;;;2057471;28;20046;-46
2022/10/27 03:58:39;;;;;;;17.73;9.30;;;;;;;;;;2057851;28;20147;-46
2022/10/27 03:59:39;;;;;;;17.17;7.78;;;;;;;;;;2057358;28;20043;-46
2022/10/27 04:00:41;;;;;;;16.63;8.83;;;;;;;;;;2057564;28;20047;-45
2022/10/27 04:01:42;;;;;;;14.98;8.27;;;;;;;;;;2057329;28;20102;-47
2022/10/27 04:02:43;;;;;;;14.32;8.38;;;;;;;;;;2061604;28;20129;-43
2022/10/27 04:03:46;;;;;;;14.50;8.10;;;;;;;;;;2065512;28;20058;-43
2022/10/27 04:04:48;;;;;;;18.63;7.82;;;;;;;;;;2065531;28;20058;-43
2022/10/27 04:05:49;;;;;;;18.58;8.93;;;;;;;;;;2065576;28;20053;-44
2022/10/27 04:06:50;;;;;;;16.58;8.25;;;;;;;;;;2065538;28;20051;-44
2022/10/27 04:07:51;;;;;;;19.58;7.75;;;;;;;;;;2065420;28;20140;-44
2022/10/27 04:08:52;;;;;;;15.87;7.93;;;;;;;;;;2064983;28;20058;-44
2022/10/27 04:09:53;;;;;;;16.73;9.15;;;;;;;;;;2065563;28;20130;-45
2022/10/27 04:10:54;;;;;;;14.27;8.53;;;;;;;;;;2065724;28;20047;-45
2022/10/27 04:11:55;;;;;;;17.52;8.43;;;;;;;;;;2065350;28;20484;-46
2022/10/27 04:12:59;;;;;;;15.90;8.38;;;;;;;;;;2065646;28;20053;-44
2022/10/27 04:14:00;;;;;;;16.50;8.35;;;;;;;;;;2065053;28;20054;-45
2022/10/27 04:15:01;;;;;;;18.97;8.17;;;;;;;;;;2065413;28;20062;-45
2022/10/27 04:16:02;;;;;;;16.45;8.13;;;;;;;;;;2065454;28;20061;-45
2022/10/27 04:17:04;;;;;;;16.27;7.97;;;;;;;;;;2065561;28;20052;-46
2022/10/27 04:18:04;;;;;;;16.13;8.45;;;;;;;;;;2065383;28;20312;-47
2022/10/27 04:19:06;;;;;;;15.60;8.77;;;;;;;;;;2065727;28;20054;-46
2022/10/27 04:20:08;;;;;;;14.52;7.95;;;;;;;;;;2065298;28;20053;-45
2022/10/27 04:21:12;;;;;;;12.98;7.53;;;;;;;;;;2065481;28;20496;-46
2022/10/27 04:22:12;;;;;;;15.82;8.32;;;;;;;;;;2065746;28;20054;-44
2022/10/27 04:23:14;;;;;;;13.73;7.50;;;;;;;;;;2065389;28;20455;-44
2022/10/27 04:24:15;;;;;;;18.30;8.48;;;;;;;;;;2065318;28;20538;-44
2022/10/27 04:25:16;;;;;;;14.90;7.87;;;;;;;;;;2065224;28;20129;-44
2022/10/27 04:26:17;;;;;;;13.85;7.57;;;;;;;;;;2065294;28;20061;-44
2022/10/27 04:27:18;;;;;;;17.42;8.45;;;;;;;;;;2065667;28;20050;-46
2022/10/27 04:28:19;;;;;;;19.50;8.53;;;;;;;;;;2065370;28;20053;-46
2022/10/27 04:29:20;;;;;;;17.30;9.23;;;;;;;;;;2065334;28;20057;-46
2022/10/27 04:30:21;;;;;;;13.80;8.30;;;;;;;;;;2065548;28;20053;-44
2022/10/27 04:31:22;;;;;;;18.65;8.10;;;;;;;;;;2065744;28;20053;-46
2022/10/27 04:32:23;;;;;;;15.60;8.57;;;;;;;;;;2064890;28;20072;-46
2022/10/27 04:33:24;;;;;;;23.50;8.98;;;;;;;;;;2065243;28;20284;-45
2022/10/27 04:34:29;;;;;;;17.67;8.35;;;;;;;;;;2065405;28;20058;-48
2022/10/27 04:35:31;;;;;;;17.23;7.68;;;;;;;;;;2065321;28;20042;-45
2022/10/27 04:36:32;;;;;;;14.27;8.07;;;;;;;;;;2065321;28;20062;-45
2022/10/27 04:37:33;;;;;;;16.27;8.35;;;;;;;;;;2065705;28;20061;-45
2022/10/27 04:38:34;;;;;;;15.10;8.05;;;;;;;;;;2065138;28;20455;-45
2022/10/27 04:39:37;;;;;;;11.10;7.07;;;;;;;;;;2065587;28;20056;-44
2022/10/27 04:40:39;;;;;;;12.17;8.07;;;;;;;;;;2065371;28;20085;-45
2022/10/27 04:41:40;;;;;;;14.00;7.97;;;;;;;;;;2065223;28;20054;-45
2022/10/27 04:42:43;;;;;;;13.40;8.00;;;;;;;;;;2064986;28;20515;-45
2022/10/27 04:43:47;;;;;;;14.80;7.75;;;;;;;;;;2065506;28;20284;-45
2022/10/27 04:44:48;;;;;;;16.70;8.57;;;;;;;;;;2065283;28;20058;-44
2022/10/27 04:45:49;;;;;;;13.32;6.55;;;;;;;;;;2065840;28;20061;-49
2022/10/27 04:46:50;;;;;;;16.80;8.30;;;;;;;;;;2065099;28;20077;-46
2022/10/27 04:47:51;;;;;;;14.48;7.72;;;;;;;;;;2064924;28;20456;-46
2022/10/27 04:48:53;;;;;;;18.55;8.30;;;;;;;;;;2065199;28;20104;-46
2022/10/27 04:49:53;;;;;;;12.43;7.68;;;;;;;;;;2065006;28;20408;-45
2022/10/27 04:50:55;;;;;;;14.23;8.03;;;;;;;;;;2065279;28;20050;-44
2022/10/27 04:51:56;;;;;;;12.07;7.20;;;;;;;;;;2057207;28;20062;-44
2022/10/27 04:52:58;;;;;;;14.85;8.70;;;;;;;;;;2057406;28;20090;-45
2022/10/27 04:53:59;;;;;;;14.40;8.27;;;;;;;;;;2057444;28;20054;-44
2022/10/27 04:55:00;;;;;;;17.67;8.63;;;;;;;;;;2057440;28;20050;-44
2022/10/27 04:56:01;;;;;;;15.98;7.28;;;;;;;;;;2057022;28;20047;-44
2022/10/27 04:57:03;;;;;;;14.82;7.93;;;;;;;;;;2057144;28;20492;-44
2022/10/27 04:58:03;;;;;;;13.95;8.25;;;;;;;;;;2057271;28;20047;-44
2022/10/27 04:59:09;;;;;;;11.57;7.78;;;;;;;;;;2062149;28;20427;-45
2022/10/27 05:00:10;;;;;;;;;;;;;;;;;;2065689;28;20046;-45
2022/10/27 05:01:12;;;;;;;11.25;7.20;;;;;;;;;;2065212;28;19960;-48
2022/10/27 05:02:13;;;;;;;;;;;;;;;;;;2065726;28;20104;-46
2022/10/27 05:03:15;;;;;;;14.80;8.30;;;;;;;;;;2065213;28;20015;-45
2022/10/27 05:04:16;;;;;;;16.20;9.35;;;;;;;;;;2065271;28;20081;-48
2022/10/27 05:05:17;;;;;;;19.03;8.67;;;;;;;;;;2065381;28;20436;-45
2022/10/27 05:06:19;;;;;;;12.45;8.02;;;;;;;;;;2065180;28;20819;-45
2022/10/27 05:07:20;;;;;;;16.63;8.23;;;;;;;;;;2065573;28;20054;-47
2022/10/27 05:08:21;;;;;;;17.30;7.53;;;;;;;;;;2065004;28;20050;-44
2022/10/27 05:09:22;;;;;;;18.80;8.65;;;;;;;;;;2065452;28;20042;-45
2022/10/27 05:10:24;;;;;;;17.57;8.57;;;;;;;;;;2065576;28;20141;-46
2022/10/27 05:11:25;;;;;;;13.40;8.23;;;;;;;;;;2064969;28;20447;-48
2022/10/27 05:12:26;;;;;;;14.30;8.10;;;;;;;;;;2065223;28;20057;-44
2022/10/27 05:13:27;;;;;;;13.50;7.97;;;;;;;;;;2065424;28;20490;-44
2022/10/27 05:14:28;;;;;;;14.20;8.23;;;;;;;;;;2065017;28;20514;-45
2022/10/27 05:15:29;;;;;;;14.37;8.37;;;;;;;;;;2065524;28;20086;-44
2022/10/27 05:16:30;;;;;;;13.20;7.55;;;;;;;;;;2064923;28;20053;-44
2022/10/27 05:17:34;;;;;;;16.87;9.20;;;;;;;;;;2065141;28;20502;-47
2022/10/27 05:18:35;;;;;;;16.00;8.52;;;;;;;;;;2065753;28;20150;-48
2022/10/27 05:19:36;;;;;;;14.20;7.70;;;;;;;;;;2065258;28;20118;-45
2022/10/27 05:20:38;;;;;;;14.27;8.52;;;;;;;;;;2064018;28;20054;-45
2022/10/27 05:21:39;;;;;;;15.73;8.52;;;;;;;;;;2064838;28;20046;-45
2022/10/27 05:22:40;;;;;;;17.58;8.07;;;;;;;;;;2065138;28;20061;-44
2022/10/27 05:23:42;;;;;;;19.63;8.18;;;;;;;;;;2065021;28;20462;-44
2022/10/27 05:24:48;;;;;;;16.05;7.90;;;;;;;;;;2065013;28;20052;-44
2022/10/27 05:25:49;;;;;;;22.00;9.63;;;;;;;;;;2065068;28;20053;-43
2022/10/27 05:26:50;;;;;;;;;;;;;;;;;;2064574;28;20053;-44
2022/10/27 05:27:51;;;;;;;14.77;8.70;;;;;;;;;;2064560;28;20170;-44
2022/10/27 05:28:53;;;;;;;17.52;8.68;;;;;;;;;;2065452;28;20483;-45
2022/10/27 05:29:54;;;;;;;15.93;7.85;;;;;;;;;;2065713;28;20054;-46
2022/10/27 05:30:56;;;;;;;17.63;9.10;;;;;;;;;;2065498;28;20085;-48
2022/10/27 05:31:56;;;;;;;20.15;9.57;;;;;;;;;;2064784;28;20050;-46
2022/10/27 05:32:57;;;;;;;21.17;8.53;;;;;;;;;;2065132;28;20415;-45
2022/10/27 05:33:58;;;;;;;16.27;8.15;;;;;;;;;;2064562;28;20056;-47
2022/10/27 05:35:01;;;;;;;17.10;8.70;;;;;;;;;;2064967;28;20058;-45
2022/10/27 05:36:01;;;;;;;15.25;8.40;;;;;;;;;;2065159;28;20046;-45
2022/10/27 05:37:04;;;;;;;13.48;8.20;;;;;;;;;;2064974;28;20046;-44
2022/10/27 05:38:04;;;;;;;16.52;7.65;;;;;;;;;;2064833;28;20112;-44
2022/10/27 05:39:06;;;;;;;15.27;7.77;;;;;;;;;;2064891;28;20054;-45
2022/10/27 05:40:08;;;;;;;14.77;7.93;;;;;;;;;;2064940;28;20046;-44
2022/10/27 05:41:09;;;;;;;;;;;;;;;;;;2065365;28;20056;-44
2022/10/27 05:42:10;;;;;;;12.98;7.72;;;;;;;;;;2064794;28;19948;-45
2022/10/27 05:43:11;;;;;;;13.55;7.55;;;;;;;;;;2064945;28;20487;-44
2022/10/27 05:44:12;;;;;;;14.55;7.10;;;;;;;;;;2065089;28;20488;-45
2022/10/27 05:45:14;;;;;;;17.73;8.57;;;;;;;;;;2065000;28;20046;-45
2022/10/27 05:46:15;;;;;;;;;;;;;;;;;;2065387;28;20046;-48
2022/10/27 05:47:16;;;;;;;16.95;8.13;;;;;;;;;;2065199;28;19922;-46
2022/10/27 05:48:17;;;;;;;16.10;8.00;;;;;;;;;;2064846;28;20057;-45
2022/10/27 05:49:18;;;;;;;17.65;7.53;;;;;;;;;;2064977;28;20046;-45
2022/10/27 05:50:19;;;;;;;14.50;8.27;;;;;;;;;;2064935;28;20049;-46
2022/10/27 05:51:20;;;;;;;12.95;7.65;;;;;;;;;;2061270;28;20300;-46
2022/10/27 05:52:23;;;;;;;13.45;7.93;;;;;;;;;;2057095;28;20054;-45
2022/10/27 05:53:24;;;;;;;13.57;8.20;;;;;;;;;;2056923;28;20070;-45
2022/10/27 05:54:25;;;;;;;13.13;7.63;;;;;;;;;;2056741;28;20101;-46
2022/10/27 05:55:26;;;;;;;13.68;7.15;;;;;;;;;;2056807;28;20051;-45
2022/10/27 05:56:27;;;;;;;18.58;8.00;;;;;;;;;;2057368;28;20051;-47
2022/10/27 05:57:28;;;;;;;11.95;7.75;;;;;;;;;;2057327;28;20054;-45
2022/10/27 05:58:29;;;;;;;13.20;7.93;;;;;;;;;;2056712;28;20500;-44
2022/10/27 05:59:30;;;;;;;11.63;7.15;;;;;;;;;;2057097;28;20054;-44
2022/10/27 06:00:32;;;;;;;15.60;8.40;;;;;;;;;;2056944;28;20085;-47
2022/10/27 06:01:33;;;;;;;12.75;7.28;;;;;;;;;;2056563;28;20484;-47
2022/10/27 06:02:34;;;;;;;15.10;7.47;;;;;;;;;;2056717;28;20053;-47
2022/10/27 06:03:35;;;;;;;18.80;8.48;;;;;;;;;;2057082;28;20050;-46
2022/10/27 06:04:37;;;;;;;14.40;7.80;;;;;;;;;;2056910;28;20047;-46
2022/10/27 06:05:37;;;;;;;13.73;7.13;;;;;;;;;;2056747;28;20058;-44
2022/10/27 06:06:39;;;;;;;17.67;7.47;;;;;;;;;;2056762;28;20093;-44
2022/10/27 06:07:40;;;;;;;13.50;7.47;;;;;;;;;;2060331;28;20046;-46
2022/10/27 06:08:41;;;;;;;13.00;7.20;;;;;;;;;;2064713;28;20558;-46